Time;durP1;ratioP1;P1;durP2;ratioP2;P2;SDS_P1;SDS_P2;PMS_P1;PMS_P2;Temp;Humidity;BMP_temperature;BMP_pressure;BME280_temperature;BME280_humidity;BME280_pressure;Samples;Min_cycle;Max_cycle;Signal;HPM_P1;HPM_P2
2021/06/15 00:00:38;;;;;;;;;;;18.50;97.10;;;;;;5069155;28;19953;-76
2021/06/15 00:03:03;;;;;;;;;;;18.50;97.80;;;;;;5069026;28;19916;-76
2021/06/15 00:05:29;;;;;;;;;;;18.40;98.40;;;;;;5068186;28;20408;-76
2021/06/15 00:07:54;;;;;;;;;;;18.40;98.70;;;;;;5069204;28;19916;-76
2021/06/15 00:10:21;;;;;;;;;;;18.40;98.20;;;;;;5050991;28;19908;-76
2021/06/15 00:12:46;;;;;;;;;;;18.40;98.70;;;;;;5069619;28;20013;-76
2021/06/15 00:15:13;;;;;;;;;;;18.30;98.50;;;;;;5069283;28;19995;-75
2021/06/15 00:17:38;;;;;;;;;;;18.30;99.50;;;;;;5068845;28;19915;-76
2021/06/15 00:20:05;;;;;;;;;;;18.20;99.60;;;;;;5071554;28;19912;-76
2021/06/15 00:22:30;;;;;;;;;;;18.20;99.50;;;;;;5070417;28;19962;-76
2021/06/15 00:24:56;;;;;;;;;;;18.20;99.60;;;;;;5066887;28;19924;-75
2021/06/15 00:27:21;;;;;;;;;;;18.10;99.60;;;;;;5069346;28;19909;-75
2021/06/15 00:29:47;;;;;;;;;;;18.10;99.90;;;;;;5068477;28;19916;-75
2021/06/15 00:32:12;;;;;;;;;;;18.10;99.90;;;;;;5069037;28;19919;-75
2021/06/15 00:34:37;;;;;;;;;;;18.00;99.90;;;;;;5064506;28;19912;-76
2021/06/15 00:37:03;;;;;;;;;;;18.00;99.90;;;;;;5069259;28;19912;-75
2021/06/15 00:39:28;;;;;;;;;;;18.00;99.90;;;;;;5068881;28;20417;-75
2021/06/15 00:41:54;;;;;;;;;;;17.90;99.90;;;;;;5068737;28;19916;-75
2021/06/15 00:44:19;;;;;;;;;;;17.90;99.90;;;;;;5067947;28;19908;-75
2021/06/15 00:46:45;;;;;;;;;;;17.90;99.90;;;;;;5069198;28;19916;-75
2021/06/15 00:49:13;;;;;;;;;;;17.80;99.90;;;;;;5068415;28;19912;-75
2021/06/15 00:51:45;;;;;;;;;;;17.80;99.90;;;;;;5051436;28;19912;-75
2021/06/15 00:54:10;;;;;;;;;;;17.80;99.90;;;;;;5067710;28;19908;-75
2021/06/15 00:56:37;;;;;;;;;;;17.80;99.90;;;;;;5067763;28;19908;-76
2021/06/15 00:59:03;;;;;;;;;;;17.70;99.90;;;;;;5068894;28;19912;-76
2021/06/15 01:01:28;;;;;;;;;;;17.70;99.90;;;;;;5068176;28;19909;-76
2021/06/15 01:03:53;;;;;;;;;;;17.60;99.90;;;;;;5066593;28;21613;-76
2021/06/15 01:06:27;;;;;;;;;;;17.60;99.90;;;;;;5068879;28;19912;-76
2021/06/15 01:08:55;;;;;;;;;;;17.60;99.90;;;;;;5065215;28;20601;-75
2021/06/15 01:11:24;;;;;;;;;;;17.60;99.90;;;;;;5068366;28;19904;-75
2021/06/15 01:13:57;;;;;;;;;;;17.50;99.90;;;;;;5068021;28;20275;-76
2021/06/15 01:16:30;;;;;;;;;;;17.50;99.90;;;;;;5068995;28;20325;-75
2021/06/15 01:19:00;;;;;;;;;;;17.50;99.90;;;;;;5068380;28;19982;-76
2021/06/15 01:21:26;;;;;;;;;;;17.50;99.90;;;;;;5068474;28;19908;-75
2021/06/15 01:23:51;;;;;;;;;;;17.50;99.90;;;;;;5066586;28;19915;-75
2021/06/15 01:26:36;;;;;;;;;;;17.40;99.90;;;;;;5069195;28;20452;-75
2021/06/15 01:29:03;;;;;;;;;;;17.40;99.90;;;;;;5065173;28;19913;-75
2021/06/15 01:31:37;;;;;;;;;;;17.40;99.90;;;;;;5068524;28;19947;-76
2021/06/15 01:34:04;;;;;;;;;;;17.40;99.90;;;;;;5062058;28;19926;-75
2021/06/15 01:36:36;;;;;;;;;;;17.30;99.90;;;;;;5068236;28;19931;-75
2021/06/15 01:39:04;;;;;;;;;;;17.30;99.90;;;;;;5059678;28;19954;-75
2021/06/15 01:41:43;;;;;;;;;;;17.30;99.90;;;;;;5064644;28;19912;-76
2021/06/15 01:44:10;;;;;;;;;;;17.30;99.90;;;;;;5065941;28;19904;-75
2021/06/15 01:46:41;;;;;;;;;;;17.30;99.90;;;;;;5070266;28;20026;-76
2021/06/15 01:49:11;;;;;;;;;;;17.30;99.90;;;;;;5072186;28;19904;-75
2021/06/15 01:51:37;;;;;;;;;;;17.30;99.90;;;;;;5071829;28;19908;-76
2021/06/15 01:54:10;;;;;;;;;;;17.30;99.90;;;;;;5065807;28;20020;-75
2021/06/15 01:56:40;;;;;;;;;;;17.20;99.90;;;;;;5071289;28;19904;-76
2021/06/15 01:59:07;;;;;;;;;;;17.20;99.90;;;;;;5072417;28;19916;-75
2021/06/15 02:01:37;;;;;;;;;;;17.10;99.90;;;;;;5071793;28;19908;-76
2021/06/15 02:04:04;;;;;;;;;;;17.10;99.90;;;;;;5070679;28;19922;-75
2021/06/15 02:06:29;;;;;;;;;;;17.10;99.90;;;;;;5072511;28;19912;-76
2021/06/15 02:08:56;;;;;;;;;;;17.10;99.90;;;;;;5071717;28;19912;-76
2021/06/15 02:11:22;;;;;;;;;;;17.10;99.90;;;;;;5071741;28;20394;-76
2021/06/15 02:13:48;;;;;;;;;;;17.10;99.90;;;;;;5070487;28;19995;-75
2021/06/15 02:16:14;;;;;;;;;;;17.00;99.90;;;;;;5071777;28;19913;-75
2021/06/15 02:18:41;;;;;;;;;;;17.00;99.90;;;;;;5071399;28;20129;-75
2021/06/15 02:21:08;;;;;;;;;;;17.00;99.90;;;;;;5071937;28;20358;-76
2021/06/15 02:23:35;;;;;;;;;;;16.90;99.90;;;;;;5069407;28;19912;-76
2021/06/15 02:26:03;;;;;;;;;;;16.90;99.90;;;;;;5070727;28;19938;-75
2021/06/15 02:28:28;;;;;;;;;;;16.90;99.90;;;;;;5071581;28;19923;-75
2021/06/15 02:30:54;;;;;;;;;;;16.90;99.90;;;;;;5071228;28;20302;-75
2021/06/15 02:33:23;;;;;;;;;;;16.90;99.90;;;;;;5071818;28;20466;-75
2021/06/15 02:35:52;;;;;;;;;;;16.90;99.90;;;;;;5067699;28;19993;-76
2021/06/15 02:38:19;;;;;;;;;;;16.80;99.90;;;;;;5066003;28;20271;-76
2021/06/15 02:40:45;;;;;;;;;;;16.80;99.90;;;;;;5065706;28;19956;-75
2021/06/15 02:43:12;;;;;;;;;;;16.80;99.90;;;;;;5071518;28;20728;-75
2021/06/15 02:45:37;;;;;;;;;;;16.80;99.90;;;;;;5065782;28;19935;-76
2021/06/15 02:48:05;;;;;;;;;;;16.80;99.90;;;;;;5070049;28;19912;-76
2021/06/15 02:50:31;;;;;;;;;;;16.80;99.90;;;;;;5071135;28;19912;-76
2021/06/15 02:53:07;;;;;;;;;;;16.80;99.90;;;;;;5070910;28;19908;-76
2021/06/15 02:55:37;;;;;;;;;;;16.80;99.90;;;;;;5070780;28;19920;-75
2021/06/15 02:58:03;;;;;;;;;;;16.80;99.90;;;;;;5068893;28;19916;-75
2021/06/15 03:00:29;;;;;;;;;;;16.80;99.90;;;;;;5070362;28;19908;-76
2021/06/15 03:02:55;;;;;;;;;;;16.80;99.90;;;;;;5070908;28;19938;-76
2021/06/15 03:05:20;;;;;;;;;;;16.80;99.90;;;;;;5067671;28;20126;-76
2021/06/15 03:07:49;;;;;;;;;;;16.80;99.90;;;;;;5070261;28;19947;-76
2021/06/15 03:10:15;;;;;;;;;;;16.80;99.90;;;;;;5070194;28;19908;-75
2021/06/15 03:12:43;;;;;;;;;;;16.80;99.90;;;;;;5070723;28;19908;-75
2021/06/15 03:15:10;;;;;;;;;;;16.80;99.90;;;;;;5067818;28;19912;-76
2021/06/15 03:17:37;;;;;;;;;;;16.80;99.90;;;;;;5052857;28;20317;-76
2021/06/15 03:20:06;;;;;;;;;;;16.80;99.90;;;;;;5070614;28;19926;-76
2021/06/15 03:22:33;;;;;;;;;;;16.80;99.90;;;;;;5070782;28;19919;-76
2021/06/15 03:25:00;;;;;;;;;;;16.80;99.90;;;;;;5069060;28;19916;-76
2021/06/15 03:27:42;;;;;;;;;;;16.90;99.90;;;;;;5052677;28;19909;-76
2021/06/15 03:30:11;;;;;;;;;;;16.80;99.90;;;;;;5070719;28;19909;-76
2021/06/15 03:32:49;;;;;;;;;;;16.80;99.90;;;;;;5070035;28;19908;-76
2021/06/15 03:35:15;;;;;;;;;;;16.90;99.90;;;;;;5069870;28;19908;-76
2021/06/15 03:37:47;;;;;;;;;;;16.90;99.90;;;;;;5070547;28;19932;-76
2021/06/15 03:40:14;;;;;;;;;;;16.90;99.90;;;;;;5070625;28;20339;-75
2021/06/15 03:42:40;;;;;;;;;;;16.90;99.90;;;;;;5052544;28;19927;-76
2021/06/15 03:45:07;;;;;;;;;;;17.00;99.90;;;;;;5069654;28;19975;-76
2021/06/15 03:47:33;;;;;;;;;;;17.00;99.90;;;;;;5069553;28;20248;-76
2021/06/15 03:49:59;;;;;;;;;;;17.00;99.90;;;;;;5070470;28;20035;-75
2021/06/15 03:52:28;;;;;;;;;;;17.00;99.90;;;;;;5070134;28;20113;-76
2021/06/15 03:54:55;;;;;;;;;;;17.10;99.90;;;;;;5070253;28;19915;-76
2021/06/15 03:57:22;;;;;;;;;;;17.10;99.90;;;;;;5063354;28;19920;-76
2021/06/15 03:59:48;;;;;;;;;;;17.10;99.90;;;;;;5069420;28;19931;-75
2021/06/15 04:02:14;;;;;;;;;;;17.10;99.90;;;;;;5069515;28;20386;-75
2021/06/15 04:04:41;;;;;;;;;;;17.20;99.90;;;;;;5069757;28;19912;-75
2021/06/15 04:07:13;;;;;;;;;;;17.20;99.90;;;;;;5069021;28;20289;-76
2021/06/15 04:09:39;;;;;;;;;;;17.30;99.90;;;;;;5069613;28;19999;-76
2021/06/15 04:12:06;;;;;;;;;;;17.30;99.90;;;;;;5065616;28;20410;-76
2021/06/15 04:14:32;;;;;;;;;;;17.40;99.90;;;;;;5069523;28;19912;-76
2021/06/15 04:16:59;;;;;;;;;;;17.40;99.90;;;;;;5067128;28;20019;-76
2021/06/15 04:19:27;;;;;;;;;;;17.50;99.90;;;;;;5069373;28;19962;-75
2021/06/15 04:21:54;;;;;;;;;;;17.60;99.90;;;;;;5066259;28;19913;-76
2021/06/15 04:24:23;;;;;;;;;;;17.60;99.90;;;;;;5069432;28;19977;-76
2021/06/15 04:26:49;;;;;;;;;;;17.70;99.90;;;;;;5068394;28;19912;-76
2021/06/15 04:29:16;;;;;;;;;;;17.80;99.90;;;;;;5068979;28;19908;-76
2021/06/15 04:31:42;;;;;;;;;;;17.90;99.90;;;;;;5068280;28;19908;-76
2021/06/15 04:34:09;;;;;;;;;;;17.90;99.90;;;;;;5068844;28;19962;-76
2021/06/15 04:36:36;;;;;;;;;;;18.00;99.90;;;;;;5068997;28;20313;-76
2021/06/15 04:39:20;;;;;;;;;;;18.10;99.90;;;;;;5067590;28;19913;-76
2021/06/15 04:41:52;;;;;;;;;;;18.20;99.90;;;;;;5064900;28;20018;-76
2021/06/15 04:44:21;;;;;;;;;;;18.20;99.90;;;;;;5061497;28;20426;-76
2021/06/15 04:46:49;;;;;;;;;;;18.30;99.90;;;;;;5065606;28;19912;-77
2021/06/15 04:49:32;;;;;;;;;;;18.40;99.90;;;;;;5068170;28;20378;-79
2021/06/15 04:52:00;;;;;;;;;;;18.50;99.90;;;;;;5060652;28;19905;-76
2021/06/15 04:54:29;;;;;;;;;;;18.50;99.90;;;;;;5068651;28;20367;-73
2021/06/15 04:56:55;;;;;;;;;;;18.50;99.90;;;;;;5066843;28;19916;-74
2021/06/15 04:59:21;;;;;;;;;;;18.60;99.90;;;;;;5068046;28;19908;-74
2021/06/15 05:01:47;;;;;;;;;;;18.70;99.90;;;;;;5068423;28;19908;-74
2021/06/15 05:04:13;;;;;;;;;;;18.80;99.90;;;;;;5068652;28;20118;-75
2021/06/15 05:06:40;;;;;;;;;;;18.80;99.90;;;;;;5067749;28;20483;-74
2021/06/15 05:09:07;;;;;;;;;;;18.80;99.90;;;;;;5068663;28;20437;-74
2021/06/15 05:11:35;;;;;;;;;;;18.90;99.90;;;;;;5067287;28;19916;-72
2021/06/15 05:14:01;;;;;;;;;;;18.90;99.90;;;;;;5067923;28;19919;-72
2021/06/15 05:16:30;;;;;;;;;;;19.00;99.90;;;;;;5068340;28;20054;-72
2021/06/15 05:18:57;;;;;;;;;;;19.00;99.90;;;;;;5067035;28;20354;-71
2021/06/15 05:21:23;;;;;;;;;;;19.10;99.90;;;;;;5062148;28;19935;-71
2021/06/15 05:23:55;;;;;;;;;;;19.10;99.90;;;;;;5064770;28;20282;-72
2021/06/15 05:26:43;;;;;;;;;;;19.20;99.90;;;;;;5062430;28;19919;-73
2021/06/15 05:29:09;;;;;;;;;;;19.30;99.90;;;;;;5060292;28;19912;-73
2021/06/15 05:31:34;;;;;;;;;;;19.40;99.90;;;;;;5068866;28;20273;-73
2021/06/15 05:33:59;;;;;;;;;;;19.40;99.90;;;;;;5068755;28;19912;-73
2021/06/15 05:36:25;;;;;;;;;;;19.50;99.90;;;;;;5067648;28;19908;-73
2021/06/15 05:38:51;;;;;;;;;;;19.50;99.90;;;;;;5068550;28;19908;-73
2021/06/15 05:41:17;;;;;;;;;;;19.50;99.70;;;;;;5058215;28;19988;-72
2021/06/15 05:43:43;;;;;;;;;;;19.50;99.70;;;;;;5066351;28;20294;-72
2021/06/15 05:46:08;;;;;;;;;;;19.50;99.90;;;;;;5068617;28;19955;-72
2021/06/15 05:48:34;;;;;;;;;;;19.50;99.90;;;;;;5064562;28;20712;-72
2021/06/15 05:50:59;;;;;;;;;;;19.50;99.90;;;;;;5068445;28;19911;-73
2021/06/15 05:53:51;;;;;;;;;;;19.60;99.90;;;;;;5068593;28;19904;-73
2021/06/15 05:56:16;;;;;;;;;;;19.60;99.90;;;;;;5061316;28;19909;-72
2021/06/15 05:58:45;;;;;;;;;;;19.70;99.90;;;;;;5067630;28;20295;-72
2021/06/15 06:01:10;;;;;;;;;;;19.70;99.90;;;;;;5068341;28;20441;-73
2021/06/15 06:03:37;;;;;;;;;;;19.80;99.90;;;;;;5068365;28;19936;-73
2021/06/15 06:08:47;;;;;;;;;;;20.00;99.90;;;;;;5068686;28;19911;-73
2021/06/15 06:11:13;;;;;;;;;;;20.10;99.90;;;;;;5068456;28;20322;-72
2021/06/15 06:13:38;;;;;;;;;;;20.20;99.90;;;;;;5068467;28;20414;-72
2021/06/15 06:16:08;;;;;;;;;;;20.20;99.90;;;;;;5067950;28;20293;-73
2021/06/15 06:18:34;;;;;;;;;;;20.30;99.90;;;;;;5065802;28;19995;-73
2021/06/15 06:21:00;;;;;;;;;;;20.40;99.90;;;;;;5068128;28;20395;-73
2021/06/15 06:23:28;;;;;;;;;;;20.40;99.90;;;;;;5068043;28;19904;-74
2021/06/15 06:25:53;;;;;;;;;;;20.50;99.90;;;;;;5067657;28;20031;-74
2021/06/15 06:28:18;;;;;;;;;;;20.60;99.90;;;;;;5059125;28;20515;-73
2021/06/15 06:30:44;;;;;;;;;;;20.60;99.90;;;;;;5050241;28;19904;-73
2021/06/15 06:33:09;;;;;;;;;;;20.70;99.90;;;;;;5068294;28;20600;-73
2021/06/15 06:35:35;;;;;;;;;;;20.80;99.90;;;;;;5071855;28;19958;-73
2021/06/15 06:38:00;;;;;;;;;;;20.80;99.90;;;;;;5071275;28;19916;-73
2021/06/15 06:40:26;;;;;;;;;;;20.90;98.50;;;;;;5071760;28;19932;-73
2021/06/15 06:42:55;;;;;;;;;;;21.00;98.30;;;;;;5070854;28;19909;-73
2021/06/15 06:45:26;;;;;;;;;;;21.00;98.90;;;;;;5071637;28;19908;-74
2021/06/15 06:47:52;;;;;;;;;;;21.10;98.70;;;;;;5070884;28;19919;-75
2021/06/15 06:50:17;;;;;;;;;;;21.10;99.90;;;;;;5071534;28;19999;-75
2021/06/15 06:52:43;;;;;;;;;;;21.00;99.70;;;;;;5069811;28;20002;-75
2021/06/15 06:55:11;;;;;;;;;;;21.00;99.90;;;;;;5081037;28;19916;-75
2021/06/15 06:57:40;;;;;;;;;;;21.00;99.90;;;;;;5064509;28;19959;-74
2021/06/15 07:00:05;;;;;;;;;;;21.00;99.90;;;;;;5070463;28;19912;-75
2021/06/15 07:02:31;;;;;;;;;;;21.00;99.90;;;;;;5070563;28;19912;-75
2021/06/15 07:04:56;;;;;;;;;;;21.00;99.40;;;;;;5068576;28;19915;-74
2021/06/15 07:07:22;;;;;;;;;;;21.10;99.90;;;;;;5069595;28;19916;-75
2021/06/15 07:09:47;;;;;;;;;;;21.20;99.40;;;;;;5063741;28;19908;-75
2021/06/15 07:12:14;;;;;;;;;;;21.20;99.90;;;;;;5069060;28;19912;-78
2021/06/15 07:14:39;;;;;;;;;;;21.20;99.90;;;;;;5070126;28;19912;-74
2021/06/15 07:17:05;;;;;;;;;;;21.20;99.90;;;;;;5063030;28;20401;-74
2021/06/15 07:19:31;;;;;;;;;;;21.10;99.90;;;;;;5066961;28;19919;-74
2021/06/15 07:21:56;;;;;;;;;;;21.10;99.90;;;;;;5069973;28;19905;-75
2021/06/15 07:24:22;;;;;;;;;;;21.10;99.90;;;;;;5068103;28;19908;-75
2021/06/15 07:26:47;;;;;;;;;;;21.20;99.90;;;;;;5067590;28;19912;-75
2021/06/15 07:29:12;;;;;;;;;;;21.30;99.90;;;;;;5059820;28;19912;-75
2021/06/15 07:31:38;;;;;;;;;;;21.30;99.90;;;;;;5066174;28;20408;-76
2021/06/15 07:34:03;;;;;;;;;;;21.40;99.90;;;;;;5067623;28;19952;-75
2021/06/15 07:36:29;;;;;;;;;;;21.30;99.90;;;;;;5062894;28;19954;-75
2021/06/15 07:38:54;;;;;;;;;;;21.30;99.90;;;;;;5070417;28;19990;-75
2021/06/15 07:41:20;;;;;;;;;;;21.40;99.90;;;;;;5065947;28;19999;-75
2021/06/15 07:43:45;;;;;;;;;;;21.40;99.70;;;;;;5068080;28;20354;-74
2021/06/15 07:46:11;;;;;;;;;;;21.50;96.90;;;;;;5067814;28;19919;-77
2021/06/15 07:48:36;;;;;;;;;;;21.50;99.90;;;;;;5069827;28;19991;-83
2021/06/15 07:51:02;;;;;;;;;;;21.70;99.90;;;;;;5068193;28;19970;-81
2021/06/15 07:53:27;;;;;;;;;;;21.70;99.90;;;;;;5069403;28;19935;-79
2021/06/15 07:55:53;;;;;;;;;;;21.70;99.90;;;;;;5068343;28;19908;-76
2021/06/15 07:58:18;;;;;;;;;;;21.70;99.90;;;;;;5059714;28;19988;-79
2021/06/15 08:00:44;;;;;;;;;;;21.80;99.90;;;;;;5067955;28;19908;-81
2021/06/15 08:03:09;;;;;;;;;;;21.90;99.90;;;;;;5069870;28;19909;-83
2021/06/15 08:05:34;;;;;;;;;;;22.00;99.90;;;;;;5068668;28;19927;-82
2021/06/15 08:08:01;;;;;;;;;;;22.10;99.90;;;;;;5061452;28;19916;-79
2021/06/15 08:10:26;;;;;;;;;;;22.20;99.90;;;;;;5067998;28;19924;-80
2021/06/15 08:12:52;;;;;;;;;;;22.30;99.90;;;;;;5061540;28;19965;-79
2021/06/15 08:15:17;;;;;;;;;;;22.30;99.90;;;;;;5064839;28;19918;-84
2021/06/15 08:17:43;;;;;;;;;;;22.30;99.90;;;;;;5041798;28;19920;-84
2021/06/15 08:20:09;;;;;;;;;;;22.30;99.90;;;;;;5069983;28;19904;-82
2021/06/15 08:22:35;;;;;;;;;;;22.30;99.90;;;;;;5068623;28;19908;-81
2021/06/15 08:25:00;;;;;;;;;;;22.20;98.50;;;;;;5068039;28;21673;-81
2021/06/15 08:27:26;;;;;;;;;;;22.20;99.30;;;;;;5067285;28;19908;-86
2021/06/15 08:29:51;;;;;;;;;;;22.20;98.80;;;;;;5064061;28;19994;-80
2021/06/15 08:32:16;;;;;;;;;;;22.20;99.10;;;;;;5069330;28;19913;-80
2021/06/15 08:34:42;;;;;;;;;;;22.30;99.60;;;;;;5069554;28;20335;-81
2021/06/15 08:37:07;;;;;;;;;;;22.30;99.90;;;;;;5067736;28;19919;-80
2021/06/15 08:39:33;;;;;;;;;;;22.40;97.70;;;;;;5066466;28;19909;-81
2021/06/15 08:41:59;;;;;;;;;;;22.40;98.40;;;;;;5057854;28;19908;-80
2021/06/15 08:44:24;;;;;;;;;;;22.40;98.90;;;;;;5064689;28;19987;-81
2021/06/15 08:46:50;;;;;;;;;;;22.50;96.90;;;;;;5060959;28;19912;-83
2021/06/15 08:49:15;;;;;;;;;;;22.50;96.70;;;;;;5066656;28;19912;-83
2021/06/15 08:51:41;;;;;;;;;;;22.60;96.10;;;;;;5068026;28;20275;-82
2021/06/15 08:54:07;;;;;;;;;;;22.70;97.20;;;;;;5067988;28;19917;-82
2021/06/15 08:56:33;;;;;;;;;;;22.90;96.50;;;;;;5066511;28;19940;-83
2021/06/15 08:59:06;;;;;;;;;;;23.00;95.10;;;;;;5068147;28;20213;-83
2021/06/15 09:01:32;;;;;;;;;;;23.10;93.50;;;;;;5067951;28;19919;-83
2021/06/15 09:03:57;;;;;;;;;;;23.10;96.10;;;;;;5068637;28;19904;-83
2021/06/15 09:06:23;;;;;;;;;;;23.20;93.80;;;;;;5058970;28;19916;-83
2021/06/15 09:08:52;;;;;;;;;;;23.20;93.40;;;;;;5067270;28;19908;-82
2021/06/15 09:11:17;;;;;;;;;;;23.30;94.40;;;;;;5067152;28;19909;-82
2021/06/15 09:13:43;;;;;;;;;;;23.40;93.90;;;;;;5067199;28;19913;-90
2021/06/15 09:16:17;;;;;;;;;;;23.40;94.50;;;;;;5068816;28;19912;-85
2021/06/15 09:18:43;;;;;;;;;;;23.50;94.50;;;;;;5054956;28;19913;-86
2021/06/15 09:21:08;;;;;;;;;;;23.50;93.10;;;;;;5059789;28;20138;-86
2021/06/15 09:23:34;;;;;;;;;;;23.50;95.00;;;;;;5067709;28;19954;-85
2021/06/15 09:26:00;;;;;;;;;;;23.50;93.00;;;;;;5063556;28;20107;-84
2021/06/15 09:28:26;;;;;;;;;;;23.50;94.80;;;;;;5061982;28;19955;-86
2021/06/15 09:31:00;;;;;;;;;;;23.50;93.30;;;;;;5060230;28;19912;-85
2021/06/15 09:33:40;;;;;;;;;;;23.40;93.30;;;;;;5069323;28;19935;-85
2021/06/15 09:36:07;;;;;;;;;;;23.50;93.60;;;;;;5067852;28;20379;-77
2021/06/15 09:38:34;;;;;;;;;;;23.50;94.50;;;;;;5068889;28;19904;-80
2021/06/15 09:40:59;;;;;;;;;;;23.60;92.40;;;;;;5051926;28;19908;-77
2021/06/15 09:43:25;;;;;;;;;;;23.60;91.70;;;;;;5068966;28;19911;-76
2021/06/15 09:45:50;;;;;;;;;;;23.70;92.50;;;;;;5066752;28;20263;-77
2021/06/15 09:48:25;;;;;;;;;;;23.80;91.60;;;;;;5067932;28;19920;-78
2021/06/15 09:50:52;;;;;;;;;;;23.80;91.20;;;;;;5065078;28;19908;-77
2021/06/15 09:53:22;;;;;;;;;;;23.80;91.60;;;;;;5068605;28;19911;-78
2021/06/15 09:55:48;;;;;;;;;;;23.80;91.40;;;;;;5073180;28;20075;-77
2021/06/15 09:58:13;;;;;;;;;;;23.80;91.90;;;;;;5066437;28;19920;-77
2021/06/15 10:00:54;;;;;;;;;;;23.80;91.20;;;;;;5067047;28;20428;-81
2021/06/15 10:03:20;;;;;;;;;;;23.80;91.70;;;;;;5047518;28;20332;-78
2021/06/15 10:05:45;;;;;;;;;;;23.80;91.30;;;;;;5064420;28;19960;-78
2021/06/15 10:08:13;;;;;;;;;;;23.80;92.40;;;;;;5070536;28;19999;-78
2021/06/15 10:10:39;;;;;;;;;;;23.90;92.70;;;;;;5070464;28;19966;-77
2021/06/15 10:13:06;;;;;;;;;;;23.90;91.80;;;;;;5071917;28;19914;-78
2021/06/15 10:15:32;;;;;;;;;;;24.00;91.80;;;;;;5065669;28;19999;-78
2021/06/15 10:17:58;;;;;;;;;;;24.10;92.20;;;;;;5072079;28;20347;-78
2021/06/15 10:20:27;;;;;;;;;;;24.10;92.90;;;;;;5072524;28;19904;-78
2021/06/15 10:22:53;;;;;;;;;;;24.00;91.80;;;;;;5069869;28;20378;-77
2021/06/15 10:25:20;;;;;;;;;;;24.00;91.30;;;;;;5067994;28;19912;-77
2021/06/15 10:27:46;;;;;;;;;;;24.00;91.70;;;;;;5070885;28;19910;-77
2021/06/15 10:30:12;;;;;;;;;;;24.00;91.00;;;;;;5070777;28;19912;-77
2021/06/15 10:33:10;;;;;;;;;;;24.00;91.10;;;;;;5072444;28;20002;-77
2021/06/15 10:35:40;;;;;;;;;;;24.00;91.10;;;;;;5006867;28;19962;-77
2021/06/15 10:38:06;;;;;;;;;;;24.10;91.10;;;;;;5057810;28;19915;-78
2021/06/15 10:40:36;;;;;;;;;;;24.20;90.00;;;;;;5071467;28;19912;-78
2021/06/15 10:43:11;;;;;;;;;;;24.30;91.20;;;;;;5062619;28;19909;-79
2021/06/15 10:45:36;;;;;;;;;;;24.30;89.90;;;;;;5071755;28;20053;-77
2021/06/15 10:48:05;;;;;;;;;;;24.50;88.30;;;;;;5060092;28;20375;-77
2021/06/15 10:50:37;;;;;;;;;;;24.40;86.80;;;;;;5063958;28;19991;-77
2021/06/15 10:53:04;;;;;;;;;;;24.40;90.80;;;;;;5058345;28;20267;-77
2021/06/15 10:55:44;;;;;;;;;;;24.40;89.90;;;;;;5070773;28;19914;-78
2021/06/15 10:58:10;;;;;;;;;;;24.50;89.00;;;;;;5071051;28;20654;-77
2021/06/15 11:00:51;;;;;;;;;;;24.60;88.50;;;;;;5063292;28;19916;-78
2021/06/15 11:03:16;;;;;;;;;;;24.80;88.40;;;;;;5071532;28;20396;-78
2021/06/15 11:05:43;;;;;;;;;;;24.90;84.80;;;;;;5057589;28;19921;-78
2021/06/15 11:08:22;;;;;;;;;;;25.10;84.70;;;;;;5065256;28;19908;-78
2021/06/15 11:10:52;;;;;;;;;;;25.00;86.50;;;;;;5070686;28;19908;-78
2021/06/15 11:13:18;;;;;;;;;;;24.90;86.60;;;;;;5069488;28;20550;-78
2021/06/15 11:15:56;;;;;;;;;;;24.70;86.50;;;;;;5071324;28;20305;-77
2021/06/15 11:18:22;;;;;;;;;;;24.60;87.70;;;;;;5067555;28;19962;-78
2021/06/15 11:20:47;;;;;;;;;;;24.50;88.40;;;;;;5069711;28;19908;-77
2021/06/15 11:23:21;;;;;;;;;;;24.30;90.10;;;;;;5060487;28;19923;-78
2021/06/15 11:25:49;;;;;;;;;;;24.20;90.40;;;;;;5070754;28;19919;-78
2021/06/15 11:28:33;;;;;;;;;;;24.00;90.50;;;;;;5047797;28;19932;-78
2021/06/15 11:31:19;;;;;;;;;;;24.00;91.00;;;;;;5047011;28;19908;-78
2021/06/15 11:34:03;;;;;;;;;;;23.90;90.90;;;;;;5059045;28;19923;-78
2021/06/15 11:36:44;;;;;;;;;;;24.00;90.80;;;;;;5058977;28;20026;-78
2021/06/15 11:39:22;;;;;;;;;;;24.00;90.30;;;;;;5069202;28;19908;-78
2021/06/15 11:42:17;;;;;;;;;;;24.00;90.10;;;;;;5066452;28;19958;-78
2021/06/15 11:44:47;;;;;;;;;;;23.90;88.80;;;;;;5069025;28;19999;-78
2021/06/15 11:47:32;;;;;;;;;;;23.80;90.80;;;;;;5067692;28;19913;-78
2021/06/15 11:50:06;;;;;;;;;;;23.80;90.00;;;;;;5064299;28;19908;-79
2021/06/15 11:52:33;;;;;;;;;;;23.80;90.30;;;;;;5063284;28;19919;-78
2021/06/15 11:54:58;;;;;;;;;;;23.90;89.20;;;;;;5061445;28;19932;-78
2021/06/15 11:57:24;;;;;;;;;;;24.10;89.20;;;;;;5069025;28;19950;-78
2021/06/15 11:59:50;;;;;;;;;;;24.10;89.10;;;;;;5068413;28;19909;-80
2021/06/15 12:02:33;;;;;;;;;;;24.30;90.20;;;;;;5073873;28;19908;-78
2021/06/15 12:05:06;;;;;;;;;;;24.50;85.90;;;;;;5061369;28;19914;-78
2021/06/15 12:07:31;;;;;;;;;;;24.80;85.20;;;;;;5069312;28;19912;-78
2021/06/15 12:10:00;;;;;;;;;;;24.90;82.30;;;;;;5063801;28;19912;-77
2021/06/15 12:12:26;;;;;;;;;;;25.20;81.20;;;;;;5065594;28;19999;-77
2021/06/15 12:14:51;;;;;;;;;;;25.50;84.40;;;;;;5069037;28;19995;-76
2021/06/15 12:17:18;;;;;;;;;;;25.80;80.90;;;;;;5065978;28;19919;-75
2021/06/15 12:19:43;;;;;;;;;;;26.00;79.30;;;;;;5068929;28;19912;-76
2021/06/15 12:22:15;;;;;;;;;;;26.30;78.80;;;;;;5065826;28;20120;-80
2021/06/15 12:24:45;;;;;;;;;;;26.70;76.50;;;;;;5069692;28;20366;-79
2021/06/15 12:27:21;;;;;;;;;;;27.20;73.50;;;;;;5060961;28;19917;-80
2021/06/15 12:29:47;;;;;;;;;;;27.70;69.20;;;;;;5063959;28;19908;-76
2021/06/15 12:32:15;;;;;;;;;;;28.00;67.80;;;;;;5036906;28;19912;-76
2021/06/15 12:34:41;;;;;;;;;;;27.80;67.70;;;;;;5064131;28;19912;-77
2021/06/15 12:37:06;;;;;;;;;;;27.70;67.90;;;;;;5069484;28;20623;-77
2021/06/15 12:39:35;;;;;;;;;;;27.40;66.60;;;;;;5061081;28;20351;-81
2021/06/15 12:42:02;;;;;;;;;;;27.20;68.20;;;;;;5049030;28;19916;-81
2021/06/15 12:44:30;;;;;;;;;;;27.10;69.40;;;;;;5056154;28;20010;-83
2021/06/15 12:46:59;;;;;;;;;;;27.20;70.10;;;;;;5065239;28;19951;-90
2021/06/15 12:49:25;;;;;;;;;;;27.10;69.70;;;;;;5035225;28;19919;-86
2021/06/15 12:51:51;;;;;;;;;;;26.90;69.90;;;;;;5068250;28;19908;-83
2021/06/15 12:54:22;;;;;;;;;;;26.80;71.30;;;;;;5061726;28;19909;-82
2021/06/15 12:57:06;;;;;;;;;;;27.00;71.10;;;;;;5060671;28;19916;-92
2021/06/15 12:59:33;;;;;;;;;;;27.30;69.30;;;;;;5073701;28;20321;-84
2021/06/15 13:01:59;;;;;;;;;;;27.40;68.80;;;;;;5051482;28;19912;-86
2021/06/15 13:04:25;;;;;;;;;;;27.40;68.30;;;;;;5067782;28;19914;-86
2021/06/15 13:06:52;;;;;;;;;;;27.50;68.70;;;;;;5063758;28;20260;-78
2021/06/15 13:09:19;;;;;;;;;;;27.40;68.30;;;;;;5067111;28;19912;-77
2021/06/15 13:12:01;;;;;;;;;;;27.40;69.30;;;;;;5069044;28;19908;-79
2021/06/15 13:14:31;;;;;;;;;;;27.30;68.20;;;;;;5064606;28;19913;-75
2021/06/15 13:17:01;;;;;;;;;;;27.50;68.80;;;;;;5069191;28;19916;-77
2021/06/15 13:19:58;;;;;;;;;;;27.50;68.50;;;;;;5062165;28;19943;-76
2021/06/15 13:22:30;;;;;;;;;;;27.50;67.50;;;;;;5029443;28;20390;-78
2021/06/15 13:24:55;;;;;;;;;;;27.30;69.20;;;;;;5053792;28;19935;-77
2021/06/15 13:27:26;;;;;;;;;;;27.10;68.80;;;;;;5066697;28;19916;-81
2021/06/15 13:29:52;;;;;;;;;;;27.00;70.70;;;;;;5066661;28;20335;-78
2021/06/15 13:32:19;;;;;;;;;;;27.20;68.80;;;;;;5068115;28;19904;-79
2021/06/15 13:35:03;;;;;;;;;;;27.30;68.70;;;;;;5064711;28;19912;-76
2021/06/15 13:37:33;;;;;;;;;;;27.50;67.00;;;;;;5060072;28;19912;-75
2021/06/15 13:42:56;;;;;;;;;;;27.60;66.30;;;;;;5021219;28;20346;-76
2021/06/15 13:45:25;;;;;;;;;;;27.20;68.40;;;;;;5065765;28;19919;-76
2021/06/15 13:47:50;;;;;;;;;;;26.90;69.20;;;;;;5068239;28;19962;-75
2021/06/15 13:50:16;;;;;;;;;;;26.70;69.70;;;;;;5068695;28;19909;-75
2021/06/15 13:52:42;;;;;;;;;;;26.40;71.40;;;;;;5064372;28;20355;-75
2021/06/15 13:55:08;;;;;;;;;;;26.10;73.60;;;;;;5068971;28;20291;-76
2021/06/15 13:57:36;;;;;;;;;;;26.10;73.00;;;;;;5070182;28;19918;-76
2021/06/15 14:00:15;;;;;;;;;;;26.60;73.90;;;;;;5069557;28;19999;-79
2021/06/15 14:02:41;;;;;;;;;;;27.50;69.90;;;;;;5059641;28;19966;-76
2021/06/15 14:05:06;;;;;;;;;;;28.30;66.60;;;;;;5057916;28;19912;-75
2021/06/15 14:07:32;;;;;;;;;;;28.40;63.70;;;;;;5067053;28;19909;-75
2021/06/15 14:09:57;;;;;;;;;;;28.30;64.30;;;;;;5067827;28;20397;-75
2021/06/15 14:12:23;;;;;;;;;;;28.10;66.10;;;;;;5071859;28;19915;-76
2021/06/15 14:14:48;;;;;;;;;;;27.80;67.80;;;;;;5066242;28;20260;-74
2021/06/15 14:17:14;;;;;;;;;;;27.60;65.50;;;;;;5069692;28;19912;-74
2021/06/15 14:19:39;;;;;;;;;;;27.50;66.80;;;;;;5061859;28;19916;-73
2021/06/15 14:22:05;;;;;;;;;;;27.40;67.20;;;;;;5069393;28;20362;-73
2021/06/15 14:24:30;;;;;;;;;;;27.40;68.20;;;;;;5063353;28;19960;-73
2021/06/15 14:27:02;;;;;;;;;;;27.60;68.80;;;;;;5070096;28;19912;-75